createdAt,value
2022-11-02T00:01:08.670Z,11.70
2022-11-02T00:03:35.555Z,11.70
2022-11-02T00:06:02.406Z,11.70
2022-11-02T00:08:29.264Z,11.70
2022-11-02T00:10:56.107Z,11.80
2022-11-02T00:13:22.933Z,11.80
2022-11-02T00:15:49.858Z,11.80
2022-11-02T00:18:16.900Z,11.90
2022-11-02T00:20:44.050Z,12.00
2022-11-02T00:23:13.425Z,12.00
2022-11-02T00:25:42.262Z,12.00
2022-11-02T00:28:09.275Z,12.10
2022-11-02T00:30:37.832Z,12.10
2022-11-02T00:33:05.134Z,12.10
2022-11-02T00:35:34.206Z,12.10
2022-11-02T00:38:02.402Z,12.10
2022-11-02T00:40:29.681Z,12.00
2022-11-02T00:42:56.582Z,12.00
2022-11-02T00:45:23.612Z,11.90
2022-11-02T00:47:50.830Z,11.90
2022-11-02T00:50:19.551Z,11.90
2022-11-02T00:52:46.456Z,11.80
2022-11-02T00:55:15.160Z,11.90
2022-11-02T00:57:44.322Z,11.90
2022-11-02T01:00:12.488Z,12.10
2022-11-02T01:02:39.533Z,12.10
2022-11-02T01:05:08.076Z,12.10
2022-11-02T01:07:35.179Z,12.20
2022-11-02T01:10:02.188Z,12.30
2022-11-02T01:12:29.057Z,12.30
2022-11-02T01:14:56.009Z,12.20
2022-11-02T01:17:22.900Z,12.20
2022-11-02T01:19:51.088Z,12.20
2022-11-02T01:22:18.028Z,12.30
2022-11-02T01:24:44.920Z,12.30
2022-11-02T01:27:11.768Z,12.40
2022-11-02T01:29:38.657Z,12.30
2022-11-02T01:32:05.851Z,12.30
2022-11-02T01:34:32.747Z,12.30
2022-11-02T01:36:59.555Z,12.20
2022-11-02T01:39:26.510Z,12.20
2022-11-02T01:41:54.021Z,12.30
2022-11-02T01:44:26.821Z,12.20
2022-11-02T01:46:56.447Z,12.10
2022-11-02T01:49:24.008Z,12.10
2022-11-02T01:51:55.457Z,12.00
2022-11-02T01:54:38.024Z,12.00
2022-11-02T01:57:10.614Z,12.00
2022-11-02T01:59:52.158Z,12.10
2022-11-02T02:02:23.505Z,12.10
2022-11-02T02:04:58.049Z,11.90
2022-11-02T02:07:26.342Z,11.80
2022-11-02T02:09:54.172Z,11.60
2022-11-02T02:12:22.772Z,11.40
2022-11-02T02:14:49.805Z,11.30
2022-11-02T02:17:39.305Z,11.20
2022-11-02T02:20:46.780Z,11.20
2022-11-02T02:23:25.658Z,11.20
2022-11-02T02:26:16.196Z,11.20
2022-11-02T02:29:07.222Z,11.30
2022-11-02T02:31:53.573Z,11.20
2022-11-02T02:34:28.930Z,11.30
2022-11-02T02:37:06.657Z,11.40
2022-11-02T02:39:52.156Z,11.40
2022-11-02T02:42:23.932Z,11.40
2022-11-02T02:45:09.751Z,11.40
2022-11-02T02:47:44.551Z,11.40
2022-11-02T02:50:28.933Z,11.40
2022-11-02T02:52:58.931Z,11.40
2022-11-02T02:55:32.867Z,11.50
2022-11-02T02:58:02.698Z,11.50
2022-11-02T03:00:31.508Z,11.60
2022-11-02T03:03:02.482Z,11.50
2022-11-02T03:05:33.951Z,11.50
2022-11-02T03:08:13.216Z,11.40
2022-11-02T03:11:15.420Z,11.40
2022-11-02T03:13:53.275Z,11.40
2022-11-02T03:16:35.641Z,11.40
2022-11-02T03:19:24.614Z,11.40
2022-11-02T03:22:21.170Z,11.30
2022-11-02T03:25:09.081Z,11.30
2022-11-02T03:28:05.423Z,11.30
2022-11-02T03:30:40.409Z,11.30
2022-11-02T03:33:11.525Z,11.30
2022-11-02T03:35:43.348Z,11.40
2022-11-02T03:38:19.800Z,11.60
2022-11-02T03:40:50.257Z,11.60
2022-11-02T03:43:20.310Z,11.60
2022-11-02T03:45:54.629Z,11.60
2022-11-02T03:48:26.680Z,11.60
2022-11-02T03:50:54.764Z,11.70
2022-11-02T03:53:32.417Z,11.60
2022-11-02T03:56:22.510Z,11.70
2022-11-02T03:58:50.957Z,11.70
2022-11-02T04:01:20.431Z,11.80
2022-11-02T04:03:48.517Z,11.80
2022-11-02T04:06:17.593Z,11.80
2022-11-02T04:08:49.265Z,11.80
2022-11-02T04:11:37.511Z,11.70
2022-11-02T04:14:27.906Z,11.70
2022-11-02T04:17:16.264Z,11.70
2022-11-02T04:19:50.225Z,11.70
2022-11-02T04:22:37.691Z,11.60
2022-11-02T04:25:20.158Z,11.60
2022-11-02T04:28:22.301Z,11.60
2022-11-02T04:31:00.768Z,11.70
2022-11-02T04:33:35.204Z,11.70
2022-11-02T04:36:11.926Z,11.60
2022-11-02T04:38:40.369Z,11.60
2022-11-02T04:41:33.757Z,11.60
2022-11-02T04:44:02.118Z,11.50
2022-11-02T04:46:31.639Z,11.70
2022-11-02T04:48:58.742Z,11.70
2022-11-02T04:51:27.899Z,11.60
2022-11-02T04:53:56.790Z,11.60
2022-11-02T04:56:26.588Z,11.60
2022-11-02T04:58:59.658Z,11.60
2022-11-02T05:01:30.748Z,11.50
2022-11-02T05:03:59.873Z,11.60
2022-11-02T05:06:29.472Z,11.50
2022-11-02T05:08:56.598Z,11.60
2022-11-02T05:11:24.698Z,11.60
2022-11-02T05:13:52.460Z,11.60
2022-11-02T05:16:19.893Z,11.60
2022-11-02T05:18:49.248Z,11.60
2022-11-02T05:21:18.154Z,11.50
2022-11-02T05:23:45.376Z,11.40
2022-11-02T05:26:12.700Z,11.40
2022-11-02T05:28:43.335Z,11.30
2022-11-02T05:31:10.412Z,11.30
2022-11-02T05:33:37.342Z,11.30
2022-11-02T05:36:11.459Z,11.30
2022-11-02T05:38:40.932Z,11.20
2022-11-02T05:41:09.500Z,11.30
2022-11-02T05:43:38.670Z,11.30
2022-11-02T05:46:08.028Z,11.40
2022-11-02T05:48:34.883Z,11.40
2022-11-02T05:51:03.940Z,11.60
2022-11-02T05:53:32.642Z,11.60
2022-11-02T05:56:00.881Z,11.60
2022-11-02T05:58:28.636Z,11.60
2022-11-02T06:00:58.682Z,11.60
2022-11-02T06:03:25.520Z,11.60
2022-11-02T06:06:06.983Z,11.60
2022-11-02T06:08:35.885Z,11.70
2022-11-02T06:11:07.719Z,11.70
2022-11-02T06:13:35.158Z,11.90
2022-11-02T06:16:09.171Z,12.00
2022-11-02T06:18:36.997Z,12.10
2022-11-02T06:21:04.112Z,12.20
2022-11-02T06:23:31.835Z,12.20
2022-11-02T06:26:00.155Z,12.20
2022-11-02T06:28:27.635Z,12.10
2022-11-02T06:30:55.750Z,12.10
2022-11-02T06:33:22.740Z,12.10
2022-11-02T06:35:52.104Z,12.10
2022-11-02T06:38:19.722Z,12.10
2022-11-02T06:41:02.136Z,12.10
2022-11-02T06:43:29.018Z,12.20
2022-11-02T06:45:57.356Z,12.20
2022-11-02T06:48:28.591Z,12.20
2022-11-02T06:50:58.391Z,12.10
2022-11-02T06:53:26.294Z,12.10
2022-11-02T06:55:54.951Z,12.10
2022-11-02T06:58:23.314Z,12.10
2022-11-02T07:00:51.098Z,12.00
2022-11-02T07:03:17.990Z,12.10
2022-11-02T07:05:51.721Z,12.10
2022-11-02T07:08:19.523Z,12.10
2022-11-02T07:10:46.901Z,12.10
2022-11-02T07:13:13.802Z,12.10
2022-11-02T07:15:40.768Z,12.10
2022-11-02T07:18:08.645Z,12.10
2022-11-02T07:20:36.140Z,12.10
2022-11-02T07:23:04.791Z,12.10
2022-11-02T07:25:33.583Z,12.20
2022-11-02T07:28:03.461Z,12.30
2022-11-02T07:30:33.150Z,12.30
2022-11-02T07:33:00.209Z,12.30
2022-11-02T07:35:27.211Z,12.40
2022-11-02T07:37:59.259Z,12.50
2022-11-02T07:40:27.084Z,12.50
2022-11-02T07:42:54.148Z,12.60
2022-11-02T07:45:29.443Z,12.60
2022-11-02T07:47:56.416Z,12.50
2022-11-02T07:50:24.897Z,12.60
2022-11-02T07:52:56.867Z,12.70
2022-11-02T07:55:27.151Z,12.70
2022-11-02T07:58:02.264Z,12.70
2022-11-02T08:00:34.763Z,12.70
2022-11-02T08:03:03.488Z,12.70
2022-11-02T08:05:33.220Z,12.70
2022-11-02T08:08:02.147Z,12.80
2022-11-02T08:10:35.335Z,12.80
2022-11-02T08:13:06.548Z,12.80
2022-11-02T08:15:33.486Z,12.90
2022-11-02T08:18:06.302Z,12.90
2022-11-02T08:20:35.955Z,12.90
2022-11-02T08:23:03.599Z,12.90
2022-11-02T08:25:30.600Z,12.90
2022-11-02T08:28:01.469Z,12.90
2022-11-02T08:30:29.803Z,12.90
2022-11-02T08:33:02.126Z,12.90
2022-11-02T08:35:29.630Z,12.90
2022-11-02T08:37:58.519Z,12.80
2022-11-02T08:40:26.393Z,12.90
2022-11-02T08:43:07.412Z,12.90
2022-11-02T08:46:08.563Z,12.90
2022-11-02T08:48:23.263Z,12.90
2022-11-02T08:50:50.546Z,12.90
2022-11-02T08:53:17.975Z,12.90
2022-11-02T08:55:44.974Z,13.00
2022-11-02T08:58:11.923Z,12.90
2022-11-02T09:00:39.039Z,13.00
2022-11-02T09:03:11.853Z,13.00
2022-11-02T09:05:42.363Z,13.00
2022-11-02T09:08:28.616Z,13.10
2022-11-02T09:11:00.206Z,13.10
2022-11-02T09:13:27.365Z,13.10
2022-11-02T09:15:56.545Z,13.00
2022-11-02T09:18:24.165Z,12.90
2022-11-02T09:20:51.529Z,12.90
2022-11-02T09:23:20.852Z,12.90
2022-11-02T09:25:48.593Z,12.80
2022-11-02T09:28:15.774Z,12.90
2022-11-02T09:30:43.207Z,13.00
2022-11-02T09:33:10.661Z,13.20
2022-11-02T09:35:40.053Z,13.30
2022-11-02T09:38:07.599Z,13.20
2022-11-02T09:40:40.497Z,13.10
2022-11-02T09:43:22.080Z,13.20
2022-11-02T09:45:53.635Z,13.10
2022-11-02T09:48:28.588Z,13.00
2022-11-02T09:51:13.367Z,13.00
2022-11-02T09:53:47.117Z,13.00
2022-11-02T09:56:16.468Z,13.00
2022-11-02T09:58:45.647Z,13.10
2022-11-02T10:01:26.330Z,13.10
2022-11-02T10:04:04.872Z,13.00
2022-11-02T10:06:35.802Z,13.10
2022-11-02T10:09:23.930Z,13.10
2022-11-02T10:12:06.891Z,13.20
2022-11-02T10:14:37.898Z,13.40
2022-11-02T10:17:21.455Z,13.40
2022-11-02T10:19:57.003Z,13.20
2022-11-02T10:22:32.843Z,13.10
2022-11-02T10:25:04.911Z,13.10
2022-11-02T10:27:37.975Z,13.20
2022-11-02T10:30:18.506Z,13.40
2022-11-02T10:32:51.278Z,13.40
2022-11-02T10:35:45.745Z,13.40
2022-11-02T10:38:23.433Z,13.60
2022-11-02T10:41:04.624Z,13.50
2022-11-02T10:43:59.206Z,13.30
2022-11-02T10:46:56.866Z,13.10
2022-11-02T10:49:23.729Z,13.50
2022-11-02T10:51:50.714Z,13.70
2022-11-02T10:54:21.692Z,13.50
2022-11-02T10:56:56.636Z,13.30
2022-11-02T10:59:23.993Z,13.20
2022-11-02T11:01:56.959Z,13.30
2022-11-02T11:04:28.474Z,13.30
2022-11-02T11:06:56.966Z,13.80
2022-11-02T11:09:30.689Z,13.70
2022-11-02T11:12:04.245Z,14.00
2022-11-02T11:20:37.365Z,14.00
2022-11-02T11:23:15.994Z,13.80
2022-11-02T11:25:43.268Z,13.70
2022-11-02T11:28:22.197Z,13.70
2022-11-02T11:31:11.529Z,13.50
2022-11-02T11:33:57.282Z,13.50
2022-11-02T11:36:33.356Z,13.40
2022-11-02T11:39:23.185Z,13.30
2022-11-02T11:41:50.288Z,13.30
2022-11-02T11:44:17.362Z,13.20
2022-11-02T11:46:46.707Z,13.20
2022-11-02T11:52:19.943Z,13.30
2022-11-02T11:54:57.025Z,13.30
2022-11-02T11:57:29.467Z,13.70
2022-11-02T11:59:59.895Z,14.10
2022-11-02T12:02:30.397Z,14.10
2022-11-02T12:05:18.755Z,14.30
2022-11-02T12:08:16.482Z,14.80
2022-11-02T12:10:53.151Z,15.30
2022-11-02T12:13:49.051Z,15.50
2022-11-02T12:16:44.378Z,15.50
2022-11-02T12:19:34.075Z,15.00
2022-11-02T12:22:19.432Z,15.00
2022-11-02T12:25:04.867Z,15.20
2022-11-02T12:27:52.042Z,15.20
2022-11-02T12:30:23.334Z,15.30
2022-11-02T12:32:56.238Z,15.70
2022-11-02T12:35:31.894Z,16.20
2022-11-02T12:38:13.773Z,16.20
2022-11-02T12:41:07.160Z,16.00
2022-11-02T12:43:46.196Z,15.90
2022-11-02T12:46:45.942Z,15.60
2022-11-02T12:49:34.514Z,15.00
2022-11-02T12:52:24.415Z,15.10
2022-11-02T12:54:56.650Z,15.00
2022-11-02T12:57:28.307Z,15.20
2022-11-02T13:00:05.724Z,15.40
2022-11-02T13:03:05.821Z,15.50
2022-11-02T13:05:50.489Z,15.40
2022-11-02T13:08:22.416Z,14.90
2022-11-02T13:10:54.771Z,15.00
2022-11-02T13:13:32.740Z,14.60
2022-11-02T13:16:01.260Z,14.30
2022-11-02T13:18:32.857Z,14.10
2022-11-02T13:21:03.133Z,14.20
2022-11-02T13:23:59.539Z,14.10
2022-11-02T13:26:30.297Z,13.90
2022-11-02T13:29:00.247Z,13.70
2022-11-02T13:31:37.922Z,13.70
2022-11-02T13:34:12.858Z,13.70
2022-11-02T13:36:40.270Z,13.60
2022-11-02T13:39:44.899Z,13.40
2022-11-02T13:42:26.204Z,13.30
2022-11-02T13:44:55.967Z,13.20
2022-11-02T13:47:28.651Z,13.20
2022-11-02T13:49:58.070Z,13.60
2022-11-02T13:52:45.227Z,14.00
2022-11-02T13:55:22.356Z,13.90
2022-11-02T13:57:58.973Z,14.00
2022-11-02T14:00:39.735Z,14.00
2022-11-02T14:03:22.046Z,14.10
2022-11-02T14:05:54.157Z,13.90
2022-11-02T14:08:33.106Z,14.10
2022-11-02T14:11:15.103Z,14.50
2022-11-02T14:13:54.253Z,14.60
2022-11-02T14:16:54.224Z,14.70
2022-11-02T14:19:23.786Z,14.80
2022-11-02T14:21:59.907Z,14.80
2022-11-02T14:24:32.922Z,14.70
2022-11-02T14:27:12.837Z,14.80
2022-11-02T14:29:43.088Z,14.80
2022-11-02T14:32:26.769Z,14.90
2022-11-02T14:35:18.681Z,14.80
2022-11-02T14:38:23.265Z,15.00
2022-11-02T14:41:00.608Z,14.90
2022-11-02T14:43:49.506Z,15.10
2022-11-02T14:46:19.452Z,15.10
2022-11-02T14:48:52.023Z,15.10
2022-11-02T14:51:39.245Z,14.90
2022-11-02T14:54:26.815Z,14.50
2022-11-02T14:57:03.090Z,14.50
2022-11-02T14:59:35.313Z,14.40
2022-11-02T15:02:31.130Z,14.40
2022-11-02T15:05:00.577Z,14.30
2022-11-02T15:07:32.964Z,14.30
2022-11-02T15:10:02.522Z,14.40
2022-11-02T15:12:31.724Z,14.30
2022-11-02T15:15:33.699Z,14.20
2022-11-02T15:18:22.829Z,14.10
2022-11-02T15:21:18.845Z,14.00
2022-11-02T15:24:05.941Z,13.90
2022-11-02T15:26:57.622Z,13.80
2022-11-02T15:29:36.993Z,13.60
2022-11-02T15:32:07.405Z,13.40
2022-11-02T15:34:40.960Z,13.20
2022-11-02T15:37:12.856Z,12.90
2022-11-02T15:39:39.802Z,12.70
2022-11-02T15:42:34.036Z,12.50
2022-11-02T15:45:09.211Z,12.30
2022-11-02T15:47:57.362Z,12.10
2022-11-02T15:50:59.057Z,12.00
2022-11-02T15:53:47.017Z,12.00
2022-11-02T15:56:23.149Z,11.90
2022-11-02T15:59:18.040Z,11.80
2022-11-02T16:01:45.177Z,11.70
2022-11-02T16:04:20.353Z,11.60
2022-11-02T16:06:49.531Z,11.50
2022-11-02T16:09:33.327Z,11.40
2022-11-02T16:12:12.925Z,11.20
2022-11-02T16:14:40.950Z,11.10
2022-11-02T16:17:38.944Z,10.90
2022-11-02T16:20:24.700Z,10.90
2022-11-02T16:22:54.140Z,10.80
2022-11-02T16:25:38.485Z,10.50
2022-11-02T16:28:23.465Z,10.40
2022-11-02T16:31:13.493Z,10.30
2022-11-02T16:33:52.303Z,10.30
2022-11-02T16:36:25.783Z,10.20
2022-11-02T16:39:03.675Z,10.10
2022-11-02T16:41:35.304Z,10.10
2022-11-02T16:44:32.701Z,10.00
2022-11-02T16:47:09.605Z,9.90
2022-11-02T16:49:51.765Z,9.90
2022-11-02T16:52:25.767Z,9.90
2022-11-02T16:54:52.685Z,9.80
2022-11-02T16:57:27.281Z,9.80
2022-11-02T17:00:05.429Z,9.80
2022-11-02T17:02:38.687Z,9.90
2022-11-02T17:05:23.608Z,10.10
2022-11-02T17:08:08.505Z,10.10
2022-11-02T17:10:37.529Z,10.00
2022-11-02T17:13:14.744Z,10.00
2022-11-02T17:15:51.487Z,10.00
2022-11-02T17:18:21.280Z,10.00
2022-11-02T17:20:49.218Z,9.90
2022-11-02T17:23:34.264Z,9.80
2022-11-02T17:26:23.252Z,9.70
2022-11-02T17:28:52.407Z,9.80
2022-11-02T17:31:24.794Z,9.90
2022-11-02T17:33:52.307Z,9.90
2022-11-02T17:36:19.425Z,9.90
2022-11-02T17:38:46.648Z,10.00
2022-11-02T17:41:36.123Z,9.90
2022-11-02T17:44:03.550Z,9.90
2022-11-02T17:46:30.453Z,9.90
2022-11-02T17:48:57.724Z,10.00
2022-11-02T17:51:25.726Z,9.90
2022-11-02T17:53:52.812Z,9.90
2022-11-02T17:56:19.860Z,9.80
2022-11-02T17:58:46.670Z,9.80
2022-11-02T18:01:14.226Z,9.70
2022-11-02T18:03:41.887Z,9.60
2022-11-02T18:06:08.922Z,9.60
2022-11-02T18:08:55.909Z,9.50
2022-11-02T18:11:26.186Z,9.40
2022-11-02T18:13:53.586Z,9.30
2022-11-02T18:16:21.158Z,9.20
2022-11-02T18:18:48.249Z,9.10
2022-11-02T18:21:15.117Z,9.00
2022-11-02T18:23:42.028Z,9.00
2022-11-02T18:26:12.798Z,9.00
2022-11-02T18:28:40.070Z,9.00
2022-11-02T18:31:08.412Z,9.00
2022-11-02T18:33:35.344Z,9.00
2022-11-02T18:36:06.954Z,9.00
2022-11-02T18:38:34.082Z,9.00
2022-11-02T18:41:27.038Z,9.10
2022-11-02T18:44:00.534Z,9.10
2022-11-02T18:46:31.947Z,9.10
2022-11-02T18:48:59.479Z,9.00
2022-11-02T18:51:26.934Z,9.00
2022-11-02T18:53:54.709Z,9.00
2022-11-02T18:56:22.224Z,9.10
2022-11-02T18:58:51.061Z,9.10
2022-11-02T19:01:21.963Z,9.10
2022-11-02T19:03:57.218Z,9.10
2022-11-02T19:06:43.140Z,9.00
2022-11-02T19:09:18.192Z,9.00
2022-11-02T19:12:00.445Z,9.00
2022-11-02T19:14:39.015Z,9.00
2022-11-02T19:17:07.314Z,9.00
2022-11-02T19:19:34.792Z,8.90
2022-11-02T19:22:02.345Z,9.00
2022-11-02T19:24:29.481Z,9.00
2022-11-02T19:26:56.332Z,9.00
2022-11-02T19:29:23.272Z,9.00
2022-11-02T19:31:50.251Z,9.00
2022-11-02T19:34:17.149Z,9.20
2022-11-02T19:36:44.005Z,9.20
2022-11-02T19:39:11.319Z,9.20
2022-11-02T19:41:38.852Z,9.40
2022-11-02T19:44:06.541Z,9.50
2022-11-02T19:46:34.264Z,9.70
2022-11-02T19:49:01.284Z,9.70
2022-11-02T19:51:31.964Z,9.90
2022-11-02T19:54:00.666Z,9.90
2022-11-02T19:56:29.457Z,10.00
2022-11-02T19:58:57.140Z,10.10
2022-11-02T20:01:26.873Z,10.20
2022-11-02T20:03:54.829Z,10.20
2022-11-02T20:06:26.245Z,10.40
2022-11-02T20:08:57.588Z,10.40
2022-11-02T20:11:27.424Z,10.50
2022-11-02T20:13:57.026Z,10.50
2022-11-02T20:16:24.083Z,10.40
2022-11-02T20:18:52.445Z,10.40
2022-11-02T20:21:23.793Z,10.40
2022-11-02T20:23:54.185Z,10.50
2022-11-02T20:26:26.103Z,10.50
2022-11-02T20:28:53.414Z,10.50
2022-11-02T20:31:22.921Z,10.50
2022-11-02T20:33:50.101Z,10.40
2022-11-02T20:36:17.246Z,10.40
2022-11-02T20:38:44.603Z,10.40
2022-11-02T20:41:17.456Z,10.40
2022-11-02T20:43:48.920Z,10.40
2022-11-02T20:46:37.035Z,10.40
2022-11-02T20:49:19.914Z,10.30
2022-11-02T20:51:53.050Z,10.20
2022-11-02T20:54:21.930Z,10.30
2022-11-02T20:56:49.793Z,10.30
2022-11-02T20:59:17.093Z,10.30
2022-11-02T21:01:44.888Z,10.30
2022-11-02T21:04:18.518Z,10.20
2022-11-02T21:06:48.123Z,10.10
2022-11-02T21:09:15.175Z,10.10
2022-11-02T21:12:00.960Z,10.10
2022-11-02T21:14:27.887Z,10.10
2022-11-02T21:16:55.563Z,10.10
2022-11-02T21:19:22.425Z,10.00
2022-11-02T21:21:49.255Z,9.90
2022-11-02T21:24:16.118Z,10.00
2022-11-02T21:26:42.926Z,10.00
2022-11-02T21:29:09.901Z,10.00
2022-11-02T21:31:36.897Z,10.00
2022-11-02T21:34:03.792Z,10.00
2022-11-02T21:36:30.836Z,9.90
2022-11-02T21:38:58.942Z,10.00
2022-11-02T21:41:28.795Z,10.00
2022-11-02T21:43:56.183Z,10.00
2022-11-02T21:46:25.663Z,10.00
2022-11-02T21:48:54.531Z,10.10
2022-11-02T21:51:22.528Z,10.10
2022-11-02T21:53:50.512Z,10.20
2022-11-02T21:56:20.003Z,10.10
2022-11-02T21:58:47.770Z,10.10
2022-11-02T22:01:34.861Z,10.10
2022-11-02T22:04:02.338Z,10.20
2022-11-02T22:06:31.472Z,10.20
2022-11-02T22:09:00.112Z,10.10
2022-11-02T22:11:27.848Z,10.10
2022-11-02T22:13:56.508Z,10.20
2022-11-02T22:16:28.078Z,10.20
2022-11-02T22:18:57.440Z,10.30
2022-11-02T22:21:26.442Z,10.30
2022-11-02T22:23:53.695Z,10.40
2022-11-02T22:26:25.784Z,10.40
2022-11-02T22:28:53.095Z,10.40
2022-11-02T22:31:22.229Z,10.40
2022-11-02T22:33:51.496Z,10.40
2022-11-02T22:36:20.446Z,10.40
2022-11-02T22:38:56.665Z,10.30
2022-11-02T22:41:24.907Z,10.30
2022-11-02T22:43:54.621Z,10.30
2022-11-02T22:46:22.402Z,10.30
2022-11-02T22:48:51.965Z,10.30
2022-11-02T22:51:20.947Z,10.30
2022-11-02T22:53:49.129Z,10.20
2022-11-02T22:56:17.851Z,10.20
2022-11-02T22:58:46.481Z,10.20
2022-11-02T23:01:19.014Z,10.10
2022-11-02T23:03:46.963Z,10.10
2022-11-02T23:06:14.175Z,10.10
2022-11-02T23:08:44.777Z,10.10
2022-11-02T23:11:22.322Z,10.10
2022-11-02T23:14:01.440Z,10.00
2022-11-02T23:16:29.965Z,10.10
2022-11-02T23:19:30.057Z,10.10
2022-11-02T23:22:20.225Z,10.10
2022-11-02T23:25:08.322Z,10.10
2022-11-02T23:27:57.429Z,10.10
2022-11-02T23:30:44.232Z,10.20
2022-11-02T23:33:11.314Z,10.30
2022-11-02T23:35:56.905Z,10.30
2022-11-02T23:38:23.793Z,10.30
2022-11-02T23:40:54.609Z,10.40
2022-11-02T23:43:21.482Z,10.40
2022-11-02T23:45:48.322Z,10.40
2022-11-02T23:51:01.540Z,10.50
2022-11-02T23:53:46.903Z,10.50
2022-11-02T23:56:34.793Z,10.50
2022-11-02T23:59:07.452Z,10.30
